Albany, Oklahoma
Current Conditions -  °F | °C
As of 3:55 PM on Monday 22 Dec 2014 (Local Time) from KDUA Reporting Station
Clear Clear  
Wind Chill: 59°   Ceiling: Unl
Heat Index: 59°   Visibility: 10mi
Dew Point: 46°   Wind: 7mph
Humidity: 63%   Direction: 280°W
Pressure: 29.59"   Gusts: NA
Location:  33.88°N, 96.16°W
Report Text: KDUA 222155Z AUTO 28006KT 10SM CLR 15/08 A2959 RMK AO2
Loading
Personal Weather Stations






























Interactive Weather Map New forecast layout! Learn more

10-Day Weather Forecast

Advertisements
Track Severe Weather on mobile